sensor_id;sensor_type;location;lat;lon;timestamp;P1;durP1;ratioP1;P2;durP2;ratioP2
23394;SDS011;11870;53.084;18.206;2023-06-22T00:00:48;24.35;;;18.35;;
23394;SDS011;11870;53.084;18.206;2023-06-22T00:03:31;24.75;;;16.30;;
23394;SDS011;11870;53.084;18.206;2023-06-22T00:05:57;26.27;;;19.02;;
23394;SDS011;11870;53.084;18.206;2023-06-22T00:08:23;26.63;;;18.35;;
23394;SDS011;11870;53.084;18.206;2023-06-22T00:10:49;28.88;;;19.27;;
23394;SDS011;11870;53.084;18.206;2023-06-22T00:13:16;27.83;;;19.05;;
23394;SDS011;11870;53.084;18.206;2023-06-22T00:15:43;24.45;;;18.27;;
23394;SDS011;11870;53.084;18.206;2023-06-22T00:18:10;27.55;;;19.25;;
23394;SDS011;11870;53.084;18.206;2023-06-22T00:20:36;30.75;;;19.55;;
23394;SDS011;11870;53.084;18.206;2023-06-22T00:23:03;25.15;;;18.23;;
23394;SDS011;11870;53.084;18.206;2023-06-22T00:25:39;25.10;;;17.17;;
23394;SDS011;11870;53.084;18.206;2023-06-22T00:28:06;24.35;;;18.27;;
23394;SDS011;11870;53.084;18.206;2023-06-22T00:30:33;28.38;;;19.45;;
23394;SDS011;11870;53.084;18.206;2023-06-22T00:33:00;26.67;;;19.17;;
23394;SDS011;11870;53.084;18.206;2023-06-22T00:35:26;24.92;;;18.13;;
23394;SDS011;11870;53.084;18.206;2023-06-22T00:37:56;25.52;;;19.48;;
23394;SDS011;11870;53.084;18.206;2023-06-22T00:40:32;24.05;;;16.92;;
23394;SDS011;11870;53.084;18.206;2023-06-22T00:42:59;23.38;;;18.52;;
23394;SDS011;11870;53.084;18.206;2023-06-22T00:45:25;26.20;;;18.35;;
23394;SDS011;11870;53.084;18.206;2023-06-22T00:47:52;25.65;;;18.30;;
23394;SDS011;11870;53.084;18.206;2023-06-22T00:50:22;26.10;;;18.92;;
23394;SDS011;11870;53.084;18.206;2023-06-22T00:52:51;25.88;;;17.55;;
23394;SDS011;11870;53.084;18.206;2023-06-22T00:55:19;28.48;;;18.25;;
23394;SDS011;11870;53.084;18.206;2023-06-22T00:57:47;23.20;;;17.20;;
23394;SDS011;11870;53.084;18.206;2023-06-22T01:00:14;24.77;;;17.75;;
23394;SDS011;11870;53.084;18.206;2023-06-22T01:02:43;23.42;;;17.67;;
23394;SDS011;11870;53.084;18.206;2023-06-22T01:05:13;26.40;;;18.50;;
23394;SDS011;11870;53.084;18.206;2023-06-22T01:07:42;26.58;;;18.48;;
23394;SDS011;11870;53.084;18.206;2023-06-22T01:10:50;25.40;;;18.40;;
23394;SDS011;11870;53.084;18.206;2023-06-22T01:13:29;25.42;;;18.63;;
23394;SDS011;11870;53.084;18.206;2023-06-22T01:16:07;26.48;;;18.90;;
23394;SDS011;11870;53.084;18.206;2023-06-22T01:18:42;30.60;;;19.17;;
23394;SDS011;11870;53.084;18.206;2023-06-22T01:21:12;30.02;;;18.02;;
23394;SDS011;11870;53.084;18.206;2023-06-22T01:29:32;31.63;;;19.42;;
23394;SDS011;11870;53.084;18.206;2023-06-22T01:32:00;27.65;;;18.65;;
23394;SDS011;11870;53.084;18.206;2023-06-22T01:34:30;28.27;;;18.30;;
23394;SDS011;11870;53.084;18.206;2023-06-22T01:36:58;25.40;;;15.60;;
23394;SDS011;11870;53.084;18.206;2023-06-22T01:39:26;22.67;;;16.05;;
23394;SDS011;11870;53.084;18.206;2023-06-22T01:41:53;21.63;;;15.38;;
23394;SDS011;11870;53.084;18.206;2023-06-22T01:44:19;20.80;;;14.27;;
23394;SDS011;11870;53.084;18.206;2023-06-22T01:46:46;19.45;;;13.77;;
23394;SDS011;11870;53.084;18.206;2023-06-22T01:49:14;19.98;;;13.43;;
23394;SDS011;11870;53.084;18.206;2023-06-22T01:51:40;20.58;;;13.98;;
23394;SDS011;11870;53.084;18.206;2023-06-22T01:54:06;17.58;;;12.93;;
23394;SDS011;11870;53.084;18.206;2023-06-22T01:56:33;16.50;;;12.18;;
23394;SDS011;11870;53.084;18.206;2023-06-22T02:01:34;16.25;;;11.52;;
23394;SDS011;11870;53.084;18.206;2023-06-22T02:04:08;14.65;;;11.05;;
23394;SDS011;11870;53.084;18.206;2023-06-22T02:06:38;14.13;;;10.45;;
23394;SDS011;11870;53.084;18.206;2023-06-22T02:09:08;15.50;;;11.10;;
23394;SDS011;11870;53.084;18.206;2023-06-22T02:11:37;16.85;;;10.73;;
23394;SDS011;11870;53.084;18.206;2023-06-22T02:14:05;18.23;;;11.07;;
23394;SDS011;11870;53.084;18.206;2023-06-22T02:16:32;14.07;;;11.18;;
23394;SDS011;11870;53.084;18.206;2023-06-22T02:18:58;15.23;;;11.55;;
23394;SDS011;11870;53.084;18.206;2023-06-22T02:21:29;17.60;;;11.95;;
23394;SDS011;11870;53.084;18.206;2023-06-22T02:23:56;18.35;;;12.52;;
23394;SDS011;11870;53.084;18.206;2023-06-22T02:26:22;19.20;;;14.18;;
23394;SDS011;11870;53.084;18.206;2023-06-22T02:28:51;21.35;;;13.70;;
23394;SDS011;11870;53.084;18.206;2023-06-22T02:31:17;21.70;;;13.10;;
23394;SDS011;11870;53.084;18.206;2023-06-22T02:33:44;21.23;;;12.73;;
23394;SDS011;11870;53.084;18.206;2023-06-22T02:36:10;17.13;;;11.98;;
23394;SDS011;11870;53.084;18.206;2023-06-22T02:38:40;15.63;;;11.63;;
23394;SDS011;11870;53.084;18.206;2023-06-22T02:41:11;17.38;;;11.65;;
23394;SDS011;11870;53.084;18.206;2023-06-22T02:43:38;17.45;;;10.85;;
23394;SDS011;11870;53.084;18.206;2023-06-22T02:46:04;13.77;;;11.10;;
23394;SDS011;11870;53.084;18.206;2023-06-22T02:48:30;17.92;;;11.07;;
23394;SDS011;11870;53.084;18.206;2023-06-22T02:50:56;15.77;;;10.43;;
23394;SDS011;11870;53.084;18.206;2023-06-22T02:53:25;14.00;;;10.95;;
23394;SDS011;11870;53.084;18.206;2023-06-22T02:55:51;16.00;;;11.20;;
23394;SDS011;11870;53.084;18.206;2023-06-22T02:58:18;14.93;;;11.15;;
23394;SDS011;11870;53.084;18.206;2023-06-22T03:00:43;14.20;;;10.98;;
23394;SDS011;11870;53.084;18.206;2023-06-22T03:03:09;15.07;;;11.02;;
23394;SDS011;11870;53.084;18.206;2023-06-22T03:05:35;15.38;;;11.30;;
23394;SDS011;11870;53.084;18.206;2023-06-22T03:08:02;17.75;;;11.80;;
23394;SDS011;11870;53.084;18.206;2023-06-22T03:10:27;18.05;;;11.80;;
23394;SDS011;11870;53.084;18.206;2023-06-22T03:12:54;19.30;;;11.75;;
23394;SDS011;11870;53.084;18.206;2023-06-22T03:15:20;19.90;;;10.27;;
23394;SDS011;11870;53.084;18.206;2023-06-22T03:17:46;14.65;;;8.90;;
23394;SDS011;11870;53.084;18.206;2023-06-22T03:20:12;13.48;;;8.77;;
23394;SDS011;11870;53.084;18.206;2023-06-22T03:22:39;11.63;;;8.18;;
23394;SDS011;11870;53.084;18.206;2023-06-22T03:25:06;12.98;;;7.72;;
23394;SDS011;11870;53.084;18.206;2023-06-22T03:27:36;15.05;;;7.10;;
23394;SDS011;11870;53.084;18.206;2023-06-22T03:30:02;8.65;;;6.65;;
23394;SDS011;11870;53.084;18.206;2023-06-22T03:32:29;10.90;;;7.13;;
23394;SDS011;11870;53.084;18.206;2023-06-22T03:34:54;8.30;;;6.20;;
23394;SDS011;11870;53.084;18.206;2023-06-22T03:37:27;10.38;;;6.22;;
23394;SDS011;11870;53.084;18.206;2023-06-22T03:39:53;7.30;;;5.90;;
23394;SDS011;11870;53.084;18.206;2023-06-22T03:42:19;8.98;;;5.53;;
23394;SDS011;11870;53.084;18.206;2023-06-22T03:44:45;10.27;;;5.57;;
23394;SDS011;11870;53.084;18.206;2023-06-22T03:47:12;8.95;;;5.75;;
23394;SDS011;11870;53.084;18.206;2023-06-22T03:49:38;7.75;;;5.13;;
23394;SDS011;11870;53.084;18.206;2023-06-22T03:52:04;6.75;;;5.53;;
23394;SDS011;11870;53.084;18.206;2023-06-22T03:54:31;8.00;;;5.13;;
23394;SDS011;11870;53.084;18.206;2023-06-22T03:56:57;9.32;;;4.93;;
23394;SDS011;11870;53.084;18.206;2023-06-22T03:59:24;7.78;;;4.78;;
23394;SDS011;11870;53.084;18.206;2023-06-22T04:01:50;7.35;;;4.93;;
23394;SDS011;11870;53.084;18.206;2023-06-22T04:04:17;7.10;;;4.88;;
23394;SDS011;11870;53.084;18.206;2023-06-22T04:06:43;6.15;;;4.65;;
23394;SDS011;11870;53.084;18.206;2023-06-22T04:09:09;8.65;;;4.72;;
23394;SDS011;11870;53.084;18.206;2023-06-22T04:11:35;7.97;;;4.95;;
23394;SDS011;11870;53.084;18.206;2023-06-22T04:14:01;10.25;;;6.10;;
23394;SDS011;11870;53.084;18.206;2023-06-22T04:16:27;6.13;;;4.50;;
23394;SDS011;11870;53.084;18.206;2023-06-22T04:18:53;9.73;;;4.70;;
23394;SDS011;11870;53.084;18.206;2023-06-22T04:21:20;5.95;;;4.40;;
23394;SDS011;11870;53.084;18.206;2023-06-22T04:23:46;9.80;;;4.68;;
23394;SDS011;11870;53.084;18.206;2023-06-22T04:26:12;7.90;;;4.78;;
23394;SDS011;11870;53.084;18.206;2023-06-22T04:28:39;8.15;;;4.95;;
23394;SDS011;11870;53.084;18.206;2023-06-22T04:31:06;9.52;;;4.40;;
23394;SDS011;11870;53.084;18.206;2023-06-22T04:33:32;7.47;;;4.70;;
23394;SDS011;11870;53.084;18.206;2023-06-22T04:35:59;5.85;;;3.97;;
23394;SDS011;11870;53.084;18.206;2023-06-22T04:38:29;7.60;;;4.20;;
23394;SDS011;11870;53.084;18.206;2023-06-22T04:40:58;6.18;;;4.30;;
23394;SDS011;11870;53.084;18.206;2023-06-22T04:43:27;6.95;;;4.72;;
23394;SDS011;11870;53.084;18.206;2023-06-22T04:45:56;10.30;;;4.38;;
23394;SDS011;11870;53.084;18.206;2023-06-22T04:48:29;7.65;;;4.20;;
23394;SDS011;11870;53.084;18.206;2023-06-22T04:50:58;9.43;;;4.20;;
23394;SDS011;11870;53.084;18.206;2023-06-22T04:53:29;6.13;;;4.10;;
23394;SDS011;11870;53.084;18.206;2023-06-22T04:55:56;9.50;;;4.30;;
23394;SDS011;11870;53.084;18.206;2023-06-22T04:58:22;7.90;;;4.38;;
23394;SDS011;11870;53.084;18.206;2023-06-22T05:00:48;5.95;;;4.15;;
23394;SDS011;11870;53.084;18.206;2023-06-22T05:03:18;7.90;;;3.83;;
23394;SDS011;11870;53.084;18.206;2023-06-22T05:05:44;4.55;;;3.72;;
23394;SDS011;11870;53.084;18.206;2023-06-22T05:08:22;9.70;;;6.10;;
23394;SDS011;11870;53.084;18.206;2023-06-22T05:10:52;7.63;;;4.32;;
23394;SDS011;11870;53.084;18.206;2023-06-22T05:13:17;5.15;;;4.05;;
23394;SDS011;11870;53.084;18.206;2023-06-22T05:15:43;5.53;;;3.83;;
23394;SDS011;11870;53.084;18.206;2023-06-22T05:18:12;6.85;;;4.20;;
23394;SDS011;11870;53.084;18.206;2023-06-22T05:20:39;7.80;;;4.13;;
23394;SDS011;11870;53.084;18.206;2023-06-22T05:23:04;7.53;;;4.18;;
23394;SDS011;11870;53.084;18.206;2023-06-22T05:25:31;6.65;;;3.67;;
23394;SDS011;11870;53.084;18.206;2023-06-22T05:27:57;8.82;;;4.32;;
23394;SDS011;11870;53.084;18.206;2023-06-22T05:30:24;8.48;;;4.00;;
23394;SDS011;11870;53.084;18.206;2023-06-22T05:32:50;6.20;;;3.60;;
23394;SDS011;11870;53.084;18.206;2023-06-22T05:35:18;7.45;;;3.90;;
23394;SDS011;11870;53.084;18.206;2023-06-22T05:37:44;5.95;;;3.92;;
23394;SDS011;11870;53.084;18.206;2023-06-22T05:40:10;8.20;;;3.90;;
23394;SDS011;11870;53.084;18.206;2023-06-22T05:42:36;6.22;;;3.90;;
23394;SDS011;11870;53.084;18.206;2023-06-22T05:45:02;6.43;;;3.90;;
23394;SDS011;11870;53.084;18.206;2023-06-22T05:47:29;7.22;;;3.85;;
23394;SDS011;11870;53.084;18.206;2023-06-22T05:49:55;6.57;;;4.15;;
23394;SDS011;11870;53.084;18.206;2023-06-22T05:52:21;7.65;;;3.95;;
23394;SDS011;11870;53.084;18.206;2023-06-22T05:54:47;6.07;;;3.63;;
23394;SDS011;11870;53.084;18.206;2023-06-22T05:57:12;6.75;;;3.90;;
23394;SDS011;11870;53.084;18.206;2023-06-22T05:59:39;5.47;;;3.67;;
23394;SDS011;11870;53.084;18.206;2023-06-22T06:02:05;5.35;;;3.70;;
23394;SDS011;11870;53.084;18.206;2023-06-22T06:04:31;3.50;;;3.10;;
23394;SDS011;11870;53.084;18.206;2023-06-22T06:06:57;4.22;;;3.42;;
23394;SDS011;11870;53.084;18.206;2023-06-22T06:09:23;8.88;;;3.78;;
23394;SDS011;11870;53.084;18.206;2023-06-22T06:11:49;4.68;;;3.40;;
23394;SDS011;11870;53.084;18.206;2023-06-22T06:14:15;5.82;;;3.40;;
23394;SDS011;11870;53.084;18.206;2023-06-22T06:16:42;4.10;;;3.45;;
23394;SDS011;11870;53.084;18.206;2023-06-22T06:19:08;6.25;;;3.33;;
23394;SDS011;11870;53.084;18.206;2023-06-22T06:21:35;6.45;;;3.40;;
23394;SDS011;11870;53.084;18.206;2023-06-22T06:24:01;5.78;;;3.45;;
23394;SDS011;11870;53.084;18.206;2023-06-22T06:26:27;4.93;;;3.70;;
23394;SDS011;11870;53.084;18.206;2023-06-22T06:28:59;5.07;;;3.20;;
23394;SDS011;11870;53.084;18.206;2023-06-22T06:31:25;4.82;;;3.28;;
23394;SDS011;11870;53.084;18.206;2023-06-22T06:33:54;4.72;;;3.28;;
23394;SDS011;11870;53.084;18.206;2023-06-22T06:36:20;5.78;;;3.60;;
23394;SDS011;11870;53.084;18.206;2023-06-22T06:38:47;6.32;;;3.45;;
23394;SDS011;11870;53.084;18.206;2023-06-22T06:41:14;7.38;;;3.58;;
23394;SDS011;11870;53.084;18.206;2023-06-22T06:43:41;5.13;;;3.25;;
23394;SDS011;11870;53.084;18.206;2023-06-22T06:46:10;4.68;;;3.55;;
23394;SDS011;11870;53.084;18.206;2023-06-22T06:48:36;8.38;;;3.08;;
23394;SDS011;11870;53.084;18.206;2023-06-22T06:51:02;7.07;;;3.55;;
23394;SDS011;11870;53.084;18.206;2023-06-22T06:53:28;5.32;;;2.97;;
23394;SDS011;11870;53.084;18.206;2023-06-22T06:55:54;4.43;;;3.00;;
23394;SDS011;11870;53.084;18.206;2023-06-22T06:58:20;9.63;;;6.10;;
23394;SDS011;11870;53.084;18.206;2023-06-22T07:00:48;4.78;;;3.70;;
23394;SDS011;11870;53.084;18.206;2023-06-22T07:03:14;5.13;;;3.13;;
23394;SDS011;11870;53.084;18.206;2023-06-22T07:05:40;5.65;;;2.90;;
23394;SDS011;11870;53.084;18.206;2023-06-22T07:08:06;6.00;;;2.92;;
23394;SDS011;11870;53.084;18.206;2023-06-22T07:10:32;4.15;;;3.00;;
23394;SDS011;11870;53.084;18.206;2023-06-22T07:12:58;4.65;;;3.10;;
23394;SDS011;11870;53.084;18.206;2023-06-22T07:15:24;5.35;;;2.65;;
23394;SDS011;11870;53.084;18.206;2023-06-22T07:17:50;4.35;;;2.67;;
23394;SDS011;11870;53.084;18.206;2023-06-22T07:20:16;3.33;;;2.72;;
23394;SDS011;11870;53.084;18.206;2023-06-22T07:22:42;3.90;;;2.60;;
23394;SDS011;11870;53.084;18.206;2023-06-22T07:25:10;4.05;;;2.67;;
23394;SDS011;11870;53.084;18.206;2023-06-22T07:27:44;5.82;;;2.60;;
23394;SDS011;11870;53.084;18.206;2023-06-22T07:30:31;4.03;;;2.95;;
23394;SDS011;11870;53.084;18.206;2023-06-22T07:32:58;2.92;;;2.30;;
23394;SDS011;11870;53.084;18.206;2023-06-22T07:35:29;4.75;;;2.80;;
23394;SDS011;11870;53.084;18.206;2023-06-22T07:37:55;6.25;;;2.80;;
23394;SDS011;11870;53.084;18.206;2023-06-22T07:40:21;3.45;;;2.65;;
23394;SDS011;11870;53.084;18.206;2023-06-22T07:42:47;3.58;;;2.40;;
23394;SDS011;11870;53.084;18.206;2023-06-22T07:45:18;3.65;;;2.70;;
23394;SDS011;11870;53.084;18.206;2023-06-22T07:47:44;3.40;;;2.50;;
23394;SDS011;11870;53.084;18.206;2023-06-22T07:50:10;3.35;;;2.42;;
23394;SDS011;11870;53.084;18.206;2023-06-22T07:52:36;2.65;;;2.28;;
23394;SDS011;11870;53.084;18.206;2023-06-22T07:55:03;2.75;;;2.42;;
23394;SDS011;11870;53.084;18.206;2023-06-22T07:57:30;3.15;;;2.30;;
23394;SDS011;11870;53.084;18.206;2023-06-22T08:00:01;3.67;;;2.22;;
23394;SDS011;11870;53.084;18.206;2023-06-22T08:02:32;6.35;;;2.75;;
23394;SDS011;11870;53.084;18.206;2023-06-22T08:04:59;2.53;;;2.10;;
23394;SDS011;11870;53.084;18.206;2023-06-22T08:07:25;3.63;;;2.58;;
23394;SDS011;11870;53.084;18.206;2023-06-22T08:09:52;2.50;;;2.30;;
23394;SDS011;11870;53.084;18.206;2023-06-22T08:12:19;5.03;;;2.50;;
23394;SDS011;11870;53.084;18.206;2023-06-22T08:14:45;2.85;;;2.50;;
23394;SDS011;11870;53.084;18.206;2023-06-22T08:17:12;3.47;;;2.58;;
23394;SDS011;11870;53.084;18.206;2023-06-22T08:19:39;4.78;;;2.50;;
23394;SDS011;11870;53.084;18.206;2023-06-22T08:22:05;3.80;;;2.90;;
23394;SDS011;11870;53.084;18.206;2023-06-22T08:24:31;5.00;;;3.42;;
23394;SDS011;11870;53.084;18.206;2023-06-22T08:26:57;3.28;;;2.80;;
23394;SDS011;11870;53.084;18.206;2023-06-22T08:29:23;2.78;;;2.47;;
23394;SDS011;11870;53.084;18.206;2023-06-22T08:31:49;3.50;;;2.50;;
23394;SDS011;11870;53.084;18.206;2023-06-22T08:34:15;3.90;;;2.25;;
23394;SDS011;11870;53.084;18.206;2023-06-22T08:36:41;3.08;;;2.53;;
23394;SDS011;11870;53.084;18.206;2023-06-22T08:39:08;3.65;;;2.70;;
23394;SDS011;11870;53.084;18.206;2023-06-22T08:41:34;5.18;;;2.90;;
23394;SDS011;11870;53.084;18.206;2023-06-22T08:44:00;2.80;;;2.60;;
23394;SDS011;11870;53.084;18.206;2023-06-22T08:46:26;6.38;;;2.75;;
23394;SDS011;11870;53.084;18.206;2023-06-22T08:48:59;3.08;;;2.75;;
23394;SDS011;11870;53.084;18.206;2023-06-22T08:51:26;3.83;;;2.80;;
23394;SDS011;11870;53.084;18.206;2023-06-22T08:53:52;6.03;;;2.90;;
23394;SDS011;11870;53.084;18.206;2023-06-22T08:56:18;3.00;;;2.70;;
23394;SDS011;11870;53.084;18.206;2023-06-22T08:58:44;4.10;;;2.92;;
23394;SDS011;11870;53.084;18.206;2023-06-22T09:01:10;3.40;;;2.70;;
23394;SDS011;11870;53.084;18.206;2023-06-22T09:03:36;3.90;;;3.08;;
23394;SDS011;11870;53.084;18.206;2023-06-22T09:06:03;3.33;;;2.80;;
23394;SDS011;11870;53.084;18.206;2023-06-22T09:08:29;4.18;;;3.10;;
23394;SDS011;11870;53.084;18.206;2023-06-22T09:10:55;3.20;;;2.90;;
23394;SDS011;11870;53.084;18.206;2023-06-22T09:13:21;3.90;;;3.00;;
23394;SDS011;11870;53.084;18.206;2023-06-22T09:15:47;5.93;;;3.25;;
23394;SDS011;11870;53.084;18.206;2023-06-22T09:18:13;4.40;;;2.85;;
23394;SDS011;11870;53.084;18.206;2023-06-22T09:20:39;5.95;;;3.10;;
23394;SDS011;11870;53.084;18.206;2023-06-22T09:23:05;4.78;;;2.90;;
23394;SDS011;11870;53.084;18.206;2023-06-22T09:25:33;2.83;;;2.55;;
23394;SDS011;11870;53.084;18.206;2023-06-22T09:27:59;5.60;;;3.00;;
23394;SDS011;11870;53.084;18.206;2023-06-22T09:30:24;3.28;;;2.97;;
23394;SDS011;11870;53.084;18.206;2023-06-22T09:32:51;3.28;;;2.97;;
23394;SDS011;11870;53.084;18.206;2023-06-22T09:35:17;3.28;;;2.97;;
23394;SDS011;11870;53.084;18.206;2023-06-22T09:37:43;6.07;;;3.30;;
23394;SDS011;11870;53.084;18.206;2023-06-22T09:40:10;3.35;;;3.05;;
23394;SDS011;11870;53.084;18.206;2023-06-22T09:42:38;6.70;;;3.25;;
23394;SDS011;11870;53.084;18.206;2023-06-22T09:45:05;3.30;;;3.00;;
23394;SDS011;11870;53.084;18.206;2023-06-22T09:47:32;3.40;;;3.20;;
23394;SDS011;11870;53.084;18.206;2023-06-22T09:49:58;3.53;;;3.20;;
23394;SDS011;11870;53.084;18.206;2023-06-22T09:52:25;3.15;;;2.90;;
23394;SDS011;11870;53.084;18.206;2023-06-22T09:54:51;5.85;;;3.10;;
23394;SDS011;11870;53.084;18.206;2023-06-22T09:57:17;4.25;;;3.30;;
23394;SDS011;11870;53.084;18.206;2023-06-22T09:59:43;3.15;;;2.85;;
23394;SDS011;11870;53.084;18.206;2023-06-22T10:02:09;3.63;;;3.10;;
23394;SDS011;11870;53.084;18.206;2023-06-22T10:04:35;3.13;;;2.63;;
23394;SDS011;11870;53.084;18.206;2023-06-22T10:07:02;2.90;;;2.70;;
23394;SDS011;11870;53.084;18.206;2023-06-22T10:09:28;4.07;;;3.08;;
23394;SDS011;11870;53.084;18.206;2023-06-22T10:11:54;4.53;;;2.65;;
23394;SDS011;11870;53.084;18.206;2023-06-22T10:14:20;4.80;;;2.90;;
23394;SDS011;11870;53.084;18.206;2023-06-22T10:16:46;3.15;;;2.60;;
23394;SDS011;11870;53.084;18.206;2023-06-22T10:19:13;3.35;;;2.60;;
23394;SDS011;11870;53.084;18.206;2023-06-22T10:21:39;4.50;;;2.55;;
23394;SDS011;11870;53.084;18.206;2023-06-22T10:24:05;2.95;;;2.67;;
23394;SDS011;11870;53.084;18.206;2023-06-22T10:26:32;3.30;;;2.55;;
23394;SDS011;11870;53.084;18.206;2023-06-22T10:28:58;3.97;;;2.40;;
23394;SDS011;11870;53.084;18.206;2023-06-22T10:31:25;2.30;;;2.10;;
23394;SDS011;11870;53.084;18.206;2023-06-22T10:33:52;2.95;;;2.42;;
23394;SDS011;11870;53.084;18.206;2023-06-22T10:36:19;2.92;;;2.30;;
23394;SDS011;11870;53.084;18.206;2023-06-22T10:38:45;3.22;;;2.38;;
23394;SDS011;11870;53.084;18.206;2023-06-22T10:41:13;4.93;;;2.40;;
23394;SDS011;11870;53.084;18.206;2023-06-22T10:43:40;11.23;;;2.72;;
23394;SDS011;11870;53.084;18.206;2023-06-22T10:46:06;3.35;;;2.28;;
23394;SDS011;11870;53.084;18.206;2023-06-22T10:48:33;3.13;;;2.38;;
23394;SDS011;11870;53.084;18.206;2023-06-22T10:51:00;3.58;;;2.25;;
23394;SDS011;11870;53.084;18.206;2023-06-22T10:53:26;5.45;;;2.42;;
23394;SDS011;11870;53.084;18.206;2023-06-22T10:55:52;3.53;;;2.63;;
23394;SDS011;11870;53.084;18.206;2023-06-22T10:58:19;2.97;;;2.42;;
23394;SDS011;11870;53.084;18.206;2023-06-22T11:00:46;3.50;;;2.33;;
23394;SDS011;11870;53.084;18.206;2023-06-22T11:03:12;4.13;;;2.50;;
23394;SDS011;11870;53.084;18.206;2023-06-22T11:05:40;4.13;;;2.40;;
23394;SDS011;11870;53.084;18.206;2023-06-22T11:08:07;3.88;;;2.13;;
23394;SDS011;11870;53.084;18.206;2023-06-22T11:10:33;3.42;;;2.45;;
23394;SDS011;11870;53.084;18.206;2023-06-22T11:13:02;3.70;;;2.20;;
23394;SDS011;11870;53.084;18.206;2023-06-22T11:15:31;3.47;;;2.38;;
23394;SDS011;11870;53.084;18.206;2023-06-22T11:17:57;2.97;;;1.90;;
23394;SDS011;11870;53.084;18.206;2023-06-22T11:20:23;6.78;;;2.45;;
23394;SDS011;11870;53.084;18.206;2023-06-22T11:22:49;3.97;;;2.33;;
23394;SDS011;11870;53.084;18.206;2023-06-22T11:25:15;3.38;;;2.42;;
23394;SDS011;11870;53.084;18.206;2023-06-22T11:27:41;5.43;;;2.53;;
23394;SDS011;11870;53.084;18.206;2023-06-22T11:30:07;2.88;;;2.15;;
23394;SDS011;11870;53.084;18.206;2023-06-22T11:32:33;4.10;;;2.30;;
23394;SDS011;11870;53.084;18.206;2023-06-22T11:35:04;5.00;;;2.22;;
23394;SDS011;11870;53.084;18.206;2023-06-22T11:37:31;4.50;;;2.17;;
23394;SDS011;11870;53.084;18.206;2023-06-22T11:39:57;3.35;;;2.38;;
23394;SDS011;11870;53.084;18.206;2023-06-22T11:42:24;3.85;;;2.33;;
23394;SDS011;11870;53.084;18.206;2023-06-22T11:44:50;8.00;;;2.50;;
23394;SDS011;11870;53.084;18.206;2023-06-22T11:47:19;2.92;;;2.08;;
23394;SDS011;11870;53.084;18.206;2023-06-22T11:49:45;6.13;;;2.35;;
23394;SDS011;11870;53.084;18.206;2023-06-22T11:52:12;3.65;;;2.47;;
23394;SDS011;11870;53.084;18.206;2023-06-22T11:54:38;3.40;;;2.15;;
23394;SDS011;11870;53.084;18.206;2023-06-22T11:57:04;7.00;;;2.80;;
23394;SDS011;11870;53.084;18.206;2023-06-22T11:59:30;3.15;;;2.55;;
23394;SDS011;11870;53.084;18.206;2023-06-22T12:01:57;4.75;;;2.30;;
23394;SDS011;11870;53.084;18.206;2023-06-22T12:04:23;5.40;;;2.67;;
23394;SDS011;11870;53.084;18.206;2023-06-22T12:06:49;4.40;;;2.25;;
23394;SDS011;11870;53.084;18.206;2023-06-22T12:09:15;3.70;;;2.10;;
23394;SDS011;11870;53.084;18.206;2023-06-22T12:11:42;5.18;;;2.28;;
23394;SDS011;11870;53.084;18.206;2023-06-22T12:14:07;3.30;;;2.20;;
23394;SDS011;11870;53.084;18.206;2023-06-22T12:16:34;4.60;;;2.28;;
23394;SDS011;11870;53.084;18.206;2023-06-22T12:21:30;2.75;;;2.25;;
23394;SDS011;11870;53.084;18.206;2023-06-22T12:23:56;4.32;;;2.40;;
23394;SDS011;11870;53.084;18.206;2023-06-22T12:26:22;2.97;;;2.17;;
23394;SDS011;11870;53.084;18.206;2023-06-22T12:28:48;2.55;;;2.03;;
23394;SDS011;11870;53.084;18.206;2023-06-22T12:31:14;3.05;;;2.15;;
23394;SDS011;11870;53.084;18.206;2023-06-22T12:33:45;4.57;;;2.40;;
23394;SDS011;11870;53.084;18.206;2023-06-22T12:36:11;7.20;;;2.20;;
23394;SDS011;11870;53.084;18.206;2023-06-22T12:38:37;4.20;;;2.45;;
23394;SDS011;11870;53.084;18.206;2023-06-22T12:41:04;2.80;;;2.00;;
23394;SDS011;11870;53.084;18.206;2023-06-22T12:43:30;3.28;;;2.13;;
23394;SDS011;11870;53.084;18.206;2023-06-22T12:45:56;2.10;;;1.90;;
23394;SDS011;11870;53.084;18.206;2023-06-22T12:48:22;4.95;;;2.45;;
23394;SDS011;11870;53.084;18.206;2023-06-22T12:50:48;7.85;;;2.28;;
23394;SDS011;11870;53.084;18.206;2023-06-22T12:53:14;3.92;;;2.30;;
23394;SDS011;11870;53.084;18.206;2023-06-22T12:55:41;4.55;;;2.40;;
23394;SDS011;11870;53.084;18.206;2023-06-22T12:58:07;3.38;;;2.10;;
23394;SDS011;11870;53.084;18.206;2023-06-22T13:00:33;3.75;;;2.22;;
23394;SDS011;11870;53.084;18.206;2023-06-22T13:02:58;4.07;;;2.30;;
23394;SDS011;11870;53.084;18.206;2023-06-22T13:05:25;2.90;;;2.20;;
23394;SDS011;11870;53.084;18.206;2023-06-22T13:07:51;5.03;;;2.60;;
23394;SDS011;11870;53.084;18.206;2023-06-22T13:10:17;4.93;;;2.65;;
23394;SDS011;11870;53.084;18.206;2023-06-22T13:12:43;2.85;;;2.03;;
23394;SDS011;11870;53.084;18.206;2023-06-22T13:15:09;2.83;;;2.30;;
23394;SDS011;11870;53.084;18.206;2023-06-22T13:17:34;3.55;;;2.10;;
23394;SDS011;11870;53.084;18.206;2023-06-22T13:20:01;7.43;;;2.50;;
23394;SDS011;11870;53.084;18.206;2023-06-22T13:22:30;7.70;;;2.53;;
23394;SDS011;11870;53.084;18.206;2023-06-22T13:24:58;4.57;;;2.55;;
23394;SDS011;11870;53.084;18.206;2023-06-22T13:27:24;4.75;;;2.55;;
23394;SDS011;11870;53.084;18.206;2023-06-22T13:29:52;4.28;;;2.03;;
23394;SDS011;11870;53.084;18.206;2023-06-22T13:32:17;2.90;;;2.10;;
23394;SDS011;11870;53.084;18.206;2023-06-22T13:34:44;2.65;;;2.05;;
23394;SDS011;11870;53.084;18.206;2023-06-22T13:37:09;2.45;;;2.10;;
23394;SDS011;11870;53.084;18.206;2023-06-22T13:43:59;3.33;;;2.25;;
23394;SDS011;11870;53.084;18.206;2023-06-22T13:50:06;4.07;;;2.10;;
23394;SDS011;11870;53.084;18.206;2023-06-22T13:52:33;3.13;;;2.15;;
23394;SDS011;11870;53.084;18.206;2023-06-22T13:54:59;2.70;;;2.20;;
23394;SDS011;11870;53.084;18.206;2023-06-22T13:57:25;4.28;;;2.35;;
23394;SDS011;11870;53.084;18.206;2023-06-22T13:59:51;3.90;;;2.50;;
23394;SDS011;11870;53.084;18.206;2023-06-22T14:02:18;5.88;;;2.40;;
23394;SDS011;11870;53.084;18.206;2023-06-22T14:04:44;4.40;;;2.38;;
23394;SDS011;11870;53.084;18.206;2023-06-22T14:07:10;3.15;;;2.67;;
23394;SDS011;11870;53.084;18.206;2023-06-22T14:09:36;7.05;;;2.17;;
23394;SDS011;11870;53.084;18.206;2023-06-22T14:12:05;3.88;;;2.20;;
23394;SDS011;11870;53.084;18.206;2023-06-22T14:14:32;3.13;;;2.60;;
23394;SDS011;11870;53.084;18.206;2023-06-22T14:16:59;3.20;;;2.30;;
23394;SDS011;11870;53.084;18.206;2023-06-22T14:19:25;3.47;;;2.45;;
23394;SDS011;11870;53.084;18.206;2023-06-22T14:21:51;2.80;;;2.28;;
23394;SDS011;11870;53.084;18.206;2023-06-22T14:24:17;4.72;;;2.50;;
23394;SDS011;11870;53.084;18.206;2023-06-22T14:26:43;3.70;;;2.42;;
23394;SDS011;11870;53.084;18.206;2023-06-22T14:29:09;4.97;;;2.40;;
23394;SDS011;11870;53.084;18.206;2023-06-22T14:31:35;5.05;;;2.30;;
23394;SDS011;11870;53.084;18.206;2023-06-22T14:34:01;5.40;;;2.30;;
23394;SDS011;11870;53.084;18.206;2023-06-22T14:36:29;6.10;;;2.58;;
23394;SDS011;11870;53.084;18.206;2023-06-22T14:38:54;4.40;;;2.72;;
23394;SDS011;11870;53.084;18.206;2023-06-22T14:41:20;3.25;;;2.10;;
23394;SDS011;11870;53.084;18.206;2023-06-22T14:43:47;2.45;;;2.22;;
23394;SDS011;11870;53.084;18.206;2023-06-22T14:46:14;5.43;;;2.47;;